sensor_id;sensor_type;location;lat;lon;timestamp;temperature;humidity
34877;DHT22;21086;44.780;17.194;2024-02-26T00:01:32;10.80;99.90
34877;DHT22;21086;44.780;17.194;2024-02-26T00:04:00;10.70;99.90
34877;DHT22;21086;44.780;17.194;2024-02-26T00:06:29;10.70;99.90
34877;DHT22;21086;44.780;17.194;2024-02-26T00:08:57;10.70;99.90
34877;DHT22;21086;44.780;17.194;2024-02-26T00:11:24;10.70;99.90
34877;DHT22;21086;44.780;17.194;2024-02-26T00:13:51;10.60;99.90
34877;DHT22;21086;44.780;17.194;2024-02-26T00:16:18;10.60;99.90
34877;DHT22;21086;44.780;17.194;2024-02-26T00:18:45;10.70;99.90
34877;DHT22;21086;44.780;17.194;2024-02-26T00:21:16;10.70;99.90
34877;DHT22;21086;44.780;17.194;2024-02-26T00:23:43;10.70;99.90
34877;DHT22;21086;44.780;17.194;2024-02-26T00:26:10;10.70;99.90
34877;DHT22;21086;44.780;17.194;2024-02-26T00:28:37;10.70;99.90
34877;DHT22;21086;44.780;17.194;2024-02-26T00:31:04;10.70;99.90
34877;DHT22;21086;44.780;17.194;2024-02-26T00:33:32;10.70;99.90
34877;DHT22;21086;44.780;17.194;2024-02-26T00:35:59;10.70;99.90
34877;DHT22;21086;44.780;17.194;2024-02-26T00:38:26;10.70;99.90
34877;DHT22;21086;44.780;17.194;2024-02-26T00:40:53;10.70;99.90
34877;DHT22;21086;44.780;17.194;2024-02-26T00:43:20;10.60;99.90
34877;DHT22;21086;44.780;17.194;2024-02-26T00:45:47;10.60;99.90
34877;DHT22;21086;44.780;17.194;2024-02-26T00:48:16;10.60;99.90
34877;DHT22;21086;44.780;17.194;2024-02-26T00:50:44;10.60;99.90
34877;DHT22;21086;44.780;17.194;2024-02-26T00:53:11;10.60;99.90
34877;DHT22;21086;44.780;17.194;2024-02-26T00:55:38;10.50;99.90
34877;DHT22;21086;44.780;17.194;2024-02-26T00:58:05;10.50;99.90
34877;DHT22;21086;44.780;17.194;2024-02-26T01:00:32;10.50;99.90
34877;DHT22;21086;44.780;17.194;2024-02-26T01:02:59;10.60;99.90
34877;DHT22;21086;44.780;17.194;2024-02-26T01:05:27;10.60;99.90
34877;DHT22;21086;44.780;17.194;2024-02-26T01:07:53;10.50;99.90
34877;DHT22;21086;44.780;17.194;2024-02-26T01:10:21;10.50;99.90
34877;DHT22;21086;44.780;17.194;2024-02-26T01:12:48;10.40;99.90
34877;DHT22;21086;44.780;17.194;2024-02-26T01:15:15;10.40;99.90
34877;DHT22;21086;44.780;17.194;2024-02-26T01:17:42;10.40;99.90
34877;DHT22;21086;44.780;17.194;2024-02-26T01:20:10;10.30;99.90
34877;DHT22;21086;44.780;17.194;2024-02-26T01:22:37;10.30;99.90
34877;DHT22;21086;44.780;17.194;2024-02-26T01:25:04;10.30;99.90
34877;DHT22;21086;44.780;17.194;2024-02-26T01:27:31;10.30;99.90
34877;DHT22;21086;44.780;17.194;2024-02-26T01:29:58;10.30;99.90
34877;DHT22;21086;44.780;17.194;2024-02-26T01:32:25;10.30;99.90
34877;DHT22;21086;44.780;17.194;2024-02-26T01:34:52;10.30;99.90
34877;DHT22;21086;44.780;17.194;2024-02-26T01:37:19;10.30;99.90
34877;DHT22;21086;44.780;17.194;2024-02-26T01:39:47;6.70;99.90
34877;DHT22;21086;44.780;17.194;2024-02-26T01:42:14;10.30;99.90
34877;DHT22;21086;44.780;17.194;2024-02-26T01:44:41;10.30;99.90
34877;DHT22;21086;44.780;17.194;2024-02-26T01:47:11;10.30;99.90
34877;DHT22;21086;44.780;17.194;2024-02-26T01:49:40;10.30;99.90
34877;DHT22;21086;44.780;17.194;2024-02-26T01:52:08;10.40;99.90
34877;DHT22;21086;44.780;17.194;2024-02-26T01:54:37;10.40;99.90
34877;DHT22;21086;44.780;17.194;2024-02-26T01:57:06;10.40;99.90
34877;DHT22;21086;44.780;17.194;2024-02-26T01:59:34;10.40;99.90
34877;DHT22;21086;44.780;17.194;2024-02-26T02:02:03;10.40;99.90
34877;DHT22;21086;44.780;17.194;2024-02-26T02:04:32;10.50;99.90
34877;DHT22;21086;44.780;17.194;2024-02-26T02:07:00;10.30;99.90
34877;DHT22;21086;44.780;17.194;2024-02-26T02:09:28;10.20;99.90
34877;DHT22;21086;44.780;17.194;2024-02-26T02:11:55;10.20;99.90
34877;DHT22;21086;44.780;17.194;2024-02-26T02:14:23;10.20;99.90
34877;DHT22;21086;44.780;17.194;2024-02-26T02:16:50;10.20;99.90
34877;DHT22;21086;44.780;17.194;2024-02-26T02:19:17;10.20;99.90
34877;DHT22;21086;44.780;17.194;2024-02-26T02:21:44;10.30;99.90
34877;DHT22;21086;44.780;17.194;2024-02-26T02:24:11;10.40;99.90
34877;DHT22;21086;44.780;17.194;2024-02-26T02:26:38;10.40;99.90
34877;DHT22;21086;44.780;17.194;2024-02-26T02:29:07;10.40;99.90
34877;DHT22;21086;44.780;17.194;2024-02-26T02:31:34;10.40;99.90
34877;DHT22;21086;44.780;17.194;2024-02-26T02:34:01;10.40;99.90
34877;DHT22;21086;44.780;17.194;2024-02-26T02:36:28;10.40;99.90
34877;DHT22;21086;44.780;17.194;2024-02-26T02:38:55;10.40;99.90
34877;DHT22;21086;44.780;17.194;2024-02-26T02:41:23;10.40;99.90
34877;DHT22;21086;44.780;17.194;2024-02-26T02:43:50;10.40;99.90
34877;DHT22;21086;44.780;17.194;2024-02-26T02:46:17;10.40;99.90
34877;DHT22;21086;44.780;17.194;2024-02-26T02:48:44;10.40;99.90
34877;DHT22;21086;44.780;17.194;2024-02-26T02:51:11;10.40;99.90
34877;DHT22;21086;44.780;17.194;2024-02-26T02:53:38;10.40;99.90
34877;DHT22;21086;44.780;17.194;2024-02-26T02:56:06;10.40;99.90
34877;DHT22;21086;44.780;17.194;2024-02-26T02:58:33;10.40;99.90
34877;DHT22;21086;44.780;17.194;2024-02-26T03:01:00;10.40;99.90
34877;DHT22;21086;44.780;17.194;2024-02-26T03:03:27;10.40;99.90
34877;DHT22;21086;44.780;17.194;2024-02-26T03:05:56;10.40;99.90
34877;DHT22;21086;44.780;17.194;2024-02-26T03:08:23;10.30;99.90
34877;DHT22;21086;44.780;17.194;2024-02-26T03:10:50;10.30;99.90
34877;DHT22;21086;44.780;17.194;2024-02-26T03:13:17;10.30;99.90
34877;DHT22;21086;44.780;17.194;2024-02-26T03:15:44;10.30;99.90
34877;DHT22;21086;44.780;17.194;2024-02-26T03:18:11;10.50;99.90
34877;DHT22;21086;44.780;17.194;2024-02-26T03:20:39;10.40;99.90
34877;DHT22;21086;44.780;17.194;2024-02-26T03:23:06;10.40;99.90
34877;DHT22;21086;44.780;17.194;2024-02-26T03:25:33;10.30;99.90
34877;DHT22;21086;44.780;17.194;2024-02-26T03:27:59;10.30;99.90
34877;DHT22;21086;44.780;17.194;2024-02-26T03:30:26;10.30;99.90
34877;DHT22;21086;44.780;17.194;2024-02-26T03:32:54;10.30;99.90
34877;DHT22;21086;44.780;17.194;2024-02-26T03:35:21;10.30;99.90
34877;DHT22;21086;44.780;17.194;2024-02-26T03:37:48;10.30;99.90
34877;DHT22;21086;44.780;17.194;2024-02-26T03:40:17;10.30;99.90
34877;DHT22;21086;44.780;17.194;2024-02-26T03:42:46;10.20;99.90
34877;DHT22;21086;44.780;17.194;2024-02-26T03:45:13;10.20;99.90
34877;DHT22;21086;44.780;17.194;2024-02-26T03:47:40;10.20;99.90
34877;DHT22;21086;44.780;17.194;2024-02-26T03:50:08;10.30;99.90
34877;DHT22;21086;44.780;17.194;2024-02-26T03:52:35;10.30;99.90
34877;DHT22;21086;44.780;17.194;2024-02-26T03:55:02;10.30;99.90
34877;DHT22;21086;44.780;17.194;2024-02-26T03:57:29;10.30;99.90
34877;DHT22;21086;44.780;17.194;2024-02-26T03:59:57;10.30;99.90
34877;DHT22;21086;44.780;17.194;2024-02-26T04:02:24;10.30;99.90
34877;DHT22;21086;44.780;17.194;2024-02-26T04:04:52;10.30;99.90
34877;DHT22;21086;44.780;17.194;2024-02-26T04:07:19;10.30;99.90
34877;DHT22;21086;44.780;17.194;2024-02-26T04:09:46;10.30;99.90
34877;DHT22;21086;44.780;17.194;2024-02-26T04:12:13;10.30;99.90
34877;DHT22;21086;44.780;17.194;2024-02-26T04:14:41;10.30;99.90
34877;DHT22;21086;44.780;17.194;2024-02-26T04:17:08;10.20;99.90
34877;DHT22;21086;44.780;17.194;2024-02-26T04:19:35;10.20;99.90
34877;DHT22;21086;44.780;17.194;2024-02-26T04:22:02;10.20;99.90
34877;DHT22;21086;44.780;17.194;2024-02-26T04:24:30;10.20;99.90
34877;DHT22;21086;44.780;17.194;2024-02-26T04:26:57;10.60;99.90
34877;DHT22;21086;44.780;17.194;2024-02-26T04:29:24;10.20;99.90
34877;DHT22;21086;44.780;17.194;2024-02-26T04:31:51;10.20;99.90
34877;DHT22;21086;44.780;17.194;2024-02-26T04:34:18;10.20;99.90
34877;DHT22;21086;44.780;17.194;2024-02-26T04:36:45;10.20;99.90
34877;DHT22;21086;44.780;17.194;2024-02-26T04:39:12;10.10;99.90
34877;DHT22;21086;44.780;17.194;2024-02-26T04:41:39;10.10;99.90
34877;DHT22;21086;44.780;17.194;2024-02-26T04:44:06;10.10;99.90
34877;DHT22;21086;44.780;17.194;2024-02-26T04:46:33;10.00;99.90
34877;DHT22;21086;44.780;17.194;2024-02-26T04:49:01;9.90;99.90
34877;DHT22;21086;44.780;17.194;2024-02-26T04:51:28;9.90;99.90
34877;DHT22;21086;44.780;17.194;2024-02-26T04:53:55;9.70;99.90
34877;DHT22;21086;44.780;17.194;2024-02-26T04:56:22;9.70;99.90
34877;DHT22;21086;44.780;17.194;2024-02-26T04:58:49;9.70;99.90
34877;DHT22;21086;44.780;17.194;2024-02-26T05:01:16;9.60;99.90
34877;DHT22;21086;44.780;17.194;2024-02-26T05:03:44;9.60;99.90
34877;DHT22;21086;44.780;17.194;2024-02-26T05:06:11;9.50;99.90
34877;DHT22;21086;44.780;17.194;2024-02-26T05:08:38;9.40;99.90
34877;DHT22;21086;44.780;17.194;2024-02-26T05:11:05;9.40;99.90
34877;DHT22;21086;44.780;17.194;2024-02-26T05:13:32;9.30;99.90
34877;DHT22;21086;44.780;17.194;2024-02-26T05:15:59;9.30;99.90
34877;DHT22;21086;44.780;17.194;2024-02-26T05:18:27;9.30;99.90
34877;DHT22;21086;44.780;17.194;2024-02-26T05:20:54;9.40;99.90
34877;DHT22;21086;44.780;17.194;2024-02-26T05:23:22;9.40;99.90
34877;DHT22;21086;44.780;17.194;2024-02-26T05:25:49;9.30;99.90
34877;DHT22;21086;44.780;17.194;2024-02-26T05:28:16;9.30;99.90
34877;DHT22;21086;44.780;17.194;2024-02-26T05:30:47;9.30;99.90
34877;DHT22;21086;44.780;17.194;2024-02-26T05:33:14;9.40;99.90
34877;DHT22;21086;44.780;17.194;2024-02-26T05:35:44;9.40;99.90
34877;DHT22;21086;44.780;17.194;2024-02-26T05:38:11;9.40;99.90
34877;DHT22;21086;44.780;17.194;2024-02-26T05:40:38;9.50;99.90
34877;DHT22;21086;44.780;17.194;2024-02-26T05:43:06;9.10;99.90
34877;DHT22;21086;44.780;17.194;2024-02-26T05:45:33;9.20;99.90
34877;DHT22;21086;44.780;17.194;2024-02-26T05:48:00;9.00;99.90
34877;DHT22;21086;44.780;17.194;2024-02-26T05:50:27;9.00;99.90
34877;DHT22;21086;44.780;17.194;2024-02-26T05:52:54;9.00;99.90
34877;DHT22;21086;44.780;17.194;2024-02-26T05:55:21;9.00;99.90
34877;DHT22;21086;44.780;17.194;2024-02-26T05:57:48;9.00;99.90
34877;DHT22;21086;44.780;17.194;2024-02-26T06:00:16;9.00;99.90
34877;DHT22;21086;44.780;17.194;2024-02-26T06:02:43;9.10;99.90
34877;DHT22;21086;44.780;17.194;2024-02-26T06:05:11;9.30;99.90
34877;DHT22;21086;44.780;17.194;2024-02-26T06:07:38;9.40;99.90
34877;DHT22;21086;44.780;17.194;2024-02-26T06:10:05;9.50;99.90
34877;DHT22;21086;44.780;17.194;2024-02-26T06:12:35;9.70;99.90
34877;DHT22;21086;44.780;17.194;2024-02-26T06:15:03;9.80;99.90
34877;DHT22;21086;44.780;17.194;2024-02-26T06:17:31;10.00;99.90
34877;DHT22;21086;44.780;17.194;2024-02-26T06:19:58;10.10;99.90
34877;DHT22;21086;44.780;17.194;2024-02-26T06:22:27;10.20;99.90
34877;DHT22;21086;44.780;17.194;2024-02-26T06:24:54;10.30;99.90
34877;DHT22;21086;44.780;17.194;2024-02-26T06:27:21;10.50;99.90
34877;DHT22;21086;44.780;17.194;2024-02-26T06:29:48;10.60;99.90
34877;DHT22;21086;44.780;17.194;2024-02-26T06:32:15;10.70;99.90
34877;DHT22;21086;44.780;17.194;2024-02-26T06:34:43;10.90;99.90
34877;DHT22;21086;44.780;17.194;2024-02-26T06:37:10;11.10;99.90
34877;DHT22;21086;44.780;17.194;2024-02-26T06:39:37;11.30;99.90
34877;DHT22;21086;44.780;17.194;2024-02-26T06:42:05;11.40;99.90
34877;DHT22;21086;44.780;17.194;2024-02-26T06:44:33;11.50;99.90
34877;DHT22;21086;44.780;17.194;2024-02-26T06:47:00;11.60;99.90
34877;DHT22;21086;44.780;17.194;2024-02-26T06:49:28;11.80;99.90
34877;DHT22;21086;44.780;17.194;2024-02-26T06:51:56;11.80;99.90
34877;DHT22;21086;44.780;17.194;2024-02-26T06:54:23;12.00;99.90
34877;DHT22;21086;44.780;17.194;2024-02-26T06:56:50;12.10;99.90
34877;DHT22;21086;44.780;17.194;2024-02-26T06:59:17;12.20;99.90
34877;DHT22;21086;44.780;17.194;2024-02-26T07:01:45;12.40;99.90
34877;DHT22;21086;44.780;17.194;2024-02-26T07:04:12;12.50;99.90
34877;DHT22;21086;44.780;17.194;2024-02-26T07:06:39;12.70;99.90
34877;DHT22;21086;44.780;17.194;2024-02-26T07:09:06;12.90;99.90
34877;DHT22;21086;44.780;17.194;2024-02-26T07:11:34;13.00;99.90
34877;DHT22;21086;44.780;17.194;2024-02-26T07:14:01;13.10;99.90
34877;DHT22;21086;44.780;17.194;2024-02-26T07:16:28;13.20;99.90
34877;DHT22;21086;44.780;17.194;2024-02-26T07:18:55;13.20;99.90
34877;DHT22;21086;44.780;17.194;2024-02-26T07:21:22;13.20;99.90
34877;DHT22;21086;44.780;17.194;2024-02-26T07:23:49;13.30;99.90
34877;DHT22;21086;44.780;17.194;2024-02-26T07:26:16;13.40;99.90
34877;DHT22;21086;44.780;17.194;2024-02-26T07:28:45;13.40;99.90
34877;DHT22;21086;44.780;17.194;2024-02-26T07:31:12;13.50;99.90
34877;DHT22;21086;44.780;17.194;2024-02-26T07:33:39;13.60;99.90
34877;DHT22;21086;44.780;17.194;2024-02-26T07:36:07;13.70;99.90
34877;DHT22;21086;44.780;17.194;2024-02-26T07:38:34;13.80;99.90
34877;DHT22;21086;44.780;17.194;2024-02-26T07:41:09;13.80;99.90
34877;DHT22;21086;44.780;17.194;2024-02-26T07:43:37;14.00;99.90
34877;DHT22;21086;44.780;17.194;2024-02-26T07:46:04;14.10;99.90
34877;DHT22;21086;44.780;17.194;2024-02-26T07:48:31;14.10;99.90
34877;DHT22;21086;44.780;17.194;2024-02-26T07:50:58;14.20;99.90
34877;DHT22;21086;44.780;17.194;2024-02-26T07:53:27;14.20;99.90
34877;DHT22;21086;44.780;17.194;2024-02-26T07:55:54;14.20;99.90
34877;DHT22;21086;44.780;17.194;2024-02-26T07:58:21;14.10;99.90
34877;DHT22;21086;44.780;17.194;2024-02-26T08:00:48;14.00;99.90
34877;DHT22;21086;44.780;17.194;2024-02-26T08:03:15;14.00;99.90
34877;DHT22;21086;44.780;17.194;2024-02-26T08:05:43;14.10;99.90
34877;DHT22;21086;44.780;17.194;2024-02-26T08:08:10;14.20;99.90
34877;DHT22;21086;44.780;17.194;2024-02-26T08:10:37;14.20;99.90
34877;DHT22;21086;44.780;17.194;2024-02-26T08:13:04;14.20;99.90
34877;DHT22;21086;44.780;17.194;2024-02-26T08:15:32;14.30;99.90
34877;DHT22;21086;44.780;17.194;2024-02-26T08:18:01;14.40;99.90
34877;DHT22;21086;44.780;17.194;2024-02-26T08:20:31;14.50;99.90
34877;DHT22;21086;44.780;17.194;2024-02-26T08:22:58;14.60;99.90
34877;DHT22;21086;44.780;17.194;2024-02-26T08:25:25;14.50;99.90
34877;DHT22;21086;44.780;17.194;2024-02-26T08:27:52;14.60;99.90
34877;DHT22;21086;44.780;17.194;2024-02-26T08:30:19;14.70;99.90
34877;DHT22;21086;44.780;17.194;2024-02-26T08:32:47;14.70;99.90
34877;DHT22;21086;44.780;17.194;2024-02-26T08:35:18;14.70;99.90
34877;DHT22;21086;44.780;17.194;2024-02-26T08:37:46;14.70;99.90
34877;DHT22;21086;44.780;17.194;2024-02-26T08:40:14;14.80;99.90
34877;DHT22;21086;44.780;17.194;2024-02-26T08:42:42;15.00;99.90
34877;DHT22;21086;44.780;17.194;2024-02-26T08:45:09;15.20;99.90
34877;DHT22;21086;44.780;17.194;2024-02-26T08:47:37;15.40;99.90
34877;DHT22;21086;44.780;17.194;2024-02-26T08:50:04;15.70;99.90
34877;DHT22;21086;44.780;17.194;2024-02-26T08:52:32;15.80;99.90
34877;DHT22;21086;44.780;17.194;2024-02-26T08:55:00;15.80;99.90
34877;DHT22;21086;44.780;17.194;2024-02-26T08:57:27;15.90;99.90
34877;DHT22;21086;44.780;17.194;2024-02-26T08:59:54;16.10;99.90
34877;DHT22;21086;44.780;17.194;2024-02-26T09:02:21;16.40;99.90
34877;DHT22;21086;44.780;17.194;2024-02-26T09:04:48;16.60;99.90
34877;DHT22;21086;44.780;17.194;2024-02-26T09:07:17;16.80;99.90
34877;DHT22;21086;44.780;17.194;2024-02-26T09:09:45;16.90;99.90
34877;DHT22;21086;44.780;17.194;2024-02-26T09:12:12;17.00;99.90
34877;DHT22;21086;44.780;17.194;2024-02-26T09:14:39;17.30;99.90
34877;DHT22;21086;44.780;17.194;2024-02-26T09:17:06;17.50;99.90
34877;DHT22;21086;44.780;17.194;2024-02-26T09:19:34;17.70;99.90
34877;DHT22;21086;44.780;17.194;2024-02-26T09:22:01;17.70;99.90
34877;DHT22;21086;44.780;17.194;2024-02-26T09:24:28;18.00;99.90
34877;DHT22;21086;44.780;17.194;2024-02-26T09:26:56;18.30;99.90
34877;DHT22;21086;44.780;17.194;2024-02-26T09:29:23;18.50;99.90
34877;DHT22;21086;44.780;17.194;2024-02-26T09:31:50;18.80;99.90
34877;DHT22;21086;44.780;17.194;2024-02-26T09:34:17;19.20;99.90
34877;DHT22;21086;44.780;17.194;2024-02-26T09:36:44;19.50;99.90
34877;DHT22;21086;44.780;17.194;2024-02-26T09:39:11;19.80;99.90
34877;DHT22;21086;44.780;17.194;2024-02-26T09:41:39;20.20;99.90
34877;DHT22;21086;44.780;17.194;2024-02-26T09:44:06;20.40;99.90
34877;DHT22;21086;44.780;17.194;2024-02-26T09:46:34;20.10;99.90
34877;DHT22;21086;44.780;17.194;2024-02-26T09:49:01;19.80;99.90
34877;DHT22;21086;44.780;17.194;2024-02-26T09:51:28;19.60;99.90
34877;DHT22;21086;44.780;17.194;2024-02-26T09:53:56;19.60;99.90
34877;DHT22;21086;44.780;17.194;2024-02-26T09:56:26;20.00;99.90
34877;DHT22;21086;44.780;17.194;2024-02-26T09:58:56;20.20;99.90
34877;DHT22;21086;44.780;17.194;2024-02-26T10:01:24;20.60;99.90
34877;DHT22;21086;44.780;17.194;2024-02-26T10:03:55;20.90;99.90
34877;DHT22;21086;44.780;17.194;2024-02-26T10:06:27;21.30;99.90
34877;DHT22;21086;44.780;17.194;2024-02-26T10:08:56;21.70;99.90
34877;DHT22;21086;44.780;17.194;2024-02-26T10:11:27;22.20;99.90
34877;DHT22;21086;44.780;17.194;2024-02-26T10:13:54;22.40;99.90
34877;DHT22;21086;44.780;17.194;2024-02-26T10:16:25;22.80;99.90
34877;DHT22;21086;44.780;17.194;2024-02-26T10:18:53;23.40;99.90
34877;DHT22;21086;44.780;17.194;2024-02-26T10:21:26;23.70;99.90
34877;DHT22;21086;44.780;17.194;2024-02-26T10:23:53;23.60;99.90
34877;DHT22;21086;44.780;17.194;2024-02-26T10:26:21;23.70;99.90
34877;DHT22;21086;44.780;17.194;2024-02-26T10:28:49;23.50;99.90
34877;DHT22;21086;44.780;17.194;2024-02-26T10:31:21;23.30;99.90
34877;DHT22;21086;44.780;17.194;2024-02-26T10:33:48;23.10;99.90
34877;DHT22;21086;44.780;17.194;2024-02-26T10:36:16;23.10;99.90
34877;DHT22;21086;44.780;17.194;2024-02-26T10:38:43;23.00;99.90
34877;DHT22;21086;44.780;17.194;2024-02-26T10:41:13;23.30;99.90
34877;DHT22;21086;44.780;17.194;2024-02-26T10:43:44;23.60;99.90
34877;DHT22;21086;44.780;17.194;2024-02-26T10:46:11;24.30;99.90
34877;DHT22;21086;44.780;17.194;2024-02-26T10:48:39;23.90;99.90
34877;DHT22;21086;44.780;17.194;2024-02-26T10:51:07;24.10;99.90
34877;DHT22;21086;44.780;17.194;2024-02-26T10:53:36;23.80;99.90
34877;DHT22;21086;44.780;17.194;2024-02-26T10:56:04;23.40;99.90
34877;DHT22;21086;44.780;17.194;2024-02-26T10:58:32;23.70;99.90
34877;DHT22;21086;44.780;17.194;2024-02-26T11:01:00;24.20;99.90
34877;DHT22;21086;44.780;17.194;2024-02-26T11:03:28;25.10;99.90
34877;DHT22;21086;44.780;17.194;2024-02-26T11:06:00;25.70;99.90
34877;DHT22;21086;44.780;17.194;2024-02-26T11:08:28;26.50;99.90
34877;DHT22;21086;44.780;17.194;2024-02-26T11:10:55;26.90;99.90
34877;DHT22;21086;44.780;17.194;2024-02-26T11:13:27;27.40;99.90
34877;DHT22;21086;44.780;17.194;2024-02-26T11:15:58;27.70;99.90
34877;DHT22;21086;44.780;17.194;2024-02-26T11:18:27;27.60;99.90
34877;DHT22;21086;44.780;17.194;2024-02-26T11:20:54;26.90;99.90
34877;DHT22;21086;44.780;17.194;2024-02-26T11:23:24;26.20;99.90
34877;DHT22;21086;44.780;17.194;2024-02-26T11:25:53;25.50;99.90
34877;DHT22;21086;44.780;17.194;2024-02-26T11:28:22;25.00;99.90
34877;DHT22;21086;44.780;17.194;2024-02-26T11:30:49;24.70;99.90
34877;DHT22;21086;44.780;17.194;2024-02-26T11:33:19;24.40;99.90
34877;DHT22;21086;44.780;17.194;2024-02-26T11:35:47;24.40;99.90
34877;DHT22;21086;44.780;17.194;2024-02-26T11:38:20;25.10;99.90
34877;DHT22;21086;44.780;17.194;2024-02-26T11:40:48;25.40;99.90
34877;DHT22;21086;44.780;17.194;2024-02-26T11:43:16;25.30;99.90
34877;DHT22;21086;44.780;17.194;2024-02-26T11:48:15;25.30;99.90
34877;DHT22;21086;44.780;17.194;2024-02-26T11:50:49;26.10;99.90
34877;DHT22;21086;44.780;17.194;2024-02-26T11:53:28;26.80;99.90
34877;DHT22;21086;44.780;17.194;2024-02-26T11:56:23;27.90;99.90
34877;DHT22;21086;44.780;17.194;2024-02-26T11:59:04;28.40;99.90
34877;DHT22;21086;44.780;17.194;2024-02-26T12:04:24;27.80;99.90
34877;DHT22;21086;44.780;17.194;2024-02-26T12:06:55;28.70;99.90
34877;DHT22;21086;44.780;17.194;2024-02-26T12:12:05;30.90;99.90
34877;DHT22;21086;44.780;17.194;2024-02-26T12:14:50;31.80;99.90
34877;DHT22;21086;44.780;17.194;2024-02-26T12:17:23;32.90;99.90
34877;DHT22;21086;44.780;17.194;2024-02-26T12:19:51;33.80;99.90
34877;DHT22;21086;44.780;17.194;2024-02-26T12:22:20;34.30;99.90
34877;DHT22;21086;44.780;17.194;2024-02-26T12:24:58;33.30;99.90
34877;DHT22;21086;44.780;17.194;2024-02-26T12:27:26;31.30;99.90
34877;DHT22;21086;44.780;17.194;2024-02-26T12:29:53;29.50;99.90
34877;DHT22;21086;44.780;17.194;2024-02-26T12:32:20;29.10;99.90
34877;DHT22;21086;44.780;17.194;2024-02-26T12:34:47;27.90;99.90
34877;DHT22;21086;44.780;17.194;2024-02-26T12:37:16;30.10;99.90
34877;DHT22;21086;44.780;17.194;2024-02-26T12:39:43;27.40;99.90
34877;DHT22;21086;44.780;17.194;2024-02-26T12:42:12;26.80;99.90
34877;DHT22;21086;44.780;17.194;2024-02-26T12:44:41;26.40;99.90
34877;DHT22;21086;44.780;17.194;2024-02-26T12:47:09;26.20;99.90
34877;DHT22;21086;44.780;17.194;2024-02-26T12:49:41;26.20;99.90
34877;DHT22;21086;44.780;17.194;2024-02-26T12:52:08;26.30;99.90
34877;DHT22;21086;44.780;17.194;2024-02-26T12:54:36;26.50;99.90
34877;DHT22;21086;44.780;17.194;2024-02-26T12:57:06;27.00;99.90
34877;DHT22;21086;44.780;17.194;2024-02-26T12:59:35;27.90;99.90
34877;DHT22;21086;44.780;17.194;2024-02-26T13:02:03;28.20;99.90
34877;DHT22;21086;44.780;17.194;2024-02-26T13:04:34;28.40;99.90
34877;DHT22;21086;44.780;17.194;2024-02-26T13:07:04;28.80;99.90
34877;DHT22;21086;44.780;17.194;2024-02-26T13:09:33;28.90;99.90
34877;DHT22;21086;44.780;17.194;2024-02-26T13:12:04;29.30;99.90
34877;DHT22;21086;44.780;17.194;2024-02-26T13:14:32;29.30;99.90
34877;DHT22;21086;44.780;17.194;2024-02-26T13:17:01;29.20;99.90
34877;DHT22;21086;44.780;17.194;2024-02-26T13:19:28;29.20;99.90
34877;DHT22;21086;44.780;17.194;2024-02-26T13:21:55;29.00;99.90
34877;DHT22;21086;44.780;17.194;2024-02-26T13:24:23;29.40;99.90
34877;DHT22;21086;44.780;17.194;2024-02-26T13:26:55;29.80;99.90
34877;DHT22;21086;44.780;17.194;2024-02-26T13:29:23;30.00;99.90
34877;DHT22;21086;44.780;17.194;2024-02-26T13:31:57;31.10;99.90
34877;DHT22;21086;44.780;17.194;2024-02-26T13:34:28;31.60;99.90
34877;DHT22;21086;44.780;17.194;2024-02-26T13:36:57;32.40;99.90
34877;DHT22;21086;44.780;17.194;2024-02-26T13:39:25;32.60;99.90
34877;DHT22;21086;44.780;17.194;2024-02-26T13:41:54;33.20;99.90
34877;DHT22;21086;44.780;17.194;2024-02-26T13:44:21;34.10;99.90
34877;DHT22;21086;44.780;17.194;2024-02-26T13:46:49;34.80;99.90
34877;DHT22;21086;44.780;17.194;2024-02-26T13:49:16;35.60;99.90
34877;DHT22;21086;44.780;17.194;2024-02-26T13:51:44;35.40;99.90
34877;DHT22;21086;44.780;17.194;2024-02-26T13:54:11;34.20;99.90
34877;DHT22;21086;44.780;17.194;2024-02-26T13:56:38;32.70;99.90
34877;DHT22;21086;44.780;17.194;2024-02-26T13:59:05;30.90;99.90
34877;DHT22;21086;44.780;17.194;2024-02-26T14:01:32;29.80;99.00
34877;DHT22;21086;44.780;17.194;2024-02-26T14:04:00;28.90;97.70
34877;DHT22;21086;44.780;17.194;2024-02-26T14:06:29;28.00;96.50
34877;DHT22;21086;44.780;17.194;2024-02-26T14:08:58;27.20;95.50
34877;DHT22;21086;44.780;17.194;2024-02-26T14:11:26;26.50;95.40
34877;DHT22;21086;44.780;17.194;2024-02-26T14:13:55;25.70;94.80
34877;DHT22;21086;44.780;17.194;2024-02-26T14:16:22;25.10;95.10
34877;DHT22;21086;44.780;17.194;2024-02-26T14:18:49;24.30;94.40
34877;DHT22;21086;44.780;17.194;2024-02-26T14:21:16;23.70;95.20
34877;DHT22;21086;44.780;17.194;2024-02-26T14:23:43;23.10;95.40
34877;DHT22;21086;44.780;17.194;2024-02-26T14:26:11;22.60;96.00
34877;DHT22;21086;44.780;17.194;2024-02-26T14:28:38;22.10;96.60
34877;DHT22;21086;44.780;17.194;2024-02-26T14:31:06;21.60;97.40
34877;DHT22;21086;44.780;17.194;2024-02-26T14:33:34;21.10;98.10
34877;DHT22;21086;44.780;17.194;2024-02-26T14:36:04;20.80;99.60
34877;DHT22;21086;44.780;17.194;2024-02-26T14:38:31;20.60;99.90
34877;DHT22;21086;44.780;17.194;2024-02-26T14:40:58;20.60;99.90
34877;DHT22;21086;44.780;17.194;2024-02-26T14:43:25;20.50;99.90
34877;DHT22;21086;44.780;17.194;2024-02-26T14:45:52;20.50;99.90
34877;DHT22;21086;44.780;17.194;2024-02-26T14:48:22;20.50;99.90
34877;DHT22;21086;44.780;17.194;2024-02-26T14:50:49;20.50;99.90
34877;DHT22;21086;44.780;17.194;2024-02-26T14:53:17;20.30;99.90
34877;DHT22;21086;44.780;17.194;2024-02-26T14:55:44;20.30;99.90
34877;DHT22;21086;44.780;17.194;2024-02-26T14:58:11;20.20;99.90
34877;DHT22;21086;44.780;17.194;2024-02-26T15:00:39;20.00;99.90
34877;DHT22;21086;44.780;17.194;2024-02-26T15:03:07;19.90;99.90
34877;DHT22;21086;44.780;17.194;2024-02-26T15:05:35;19.70;99.90
34877;DHT22;21086;44.780;17.194;2024-02-26T15:08:02;19.60;99.90
34877;DHT22;21086;44.780;17.194;2024-02-26T15:10:29;19.40;99.90
34877;DHT22;21086;44.780;17.194;2024-02-26T15:12:56;19.40;99.90
34877;DHT22;21086;44.780;17.194;2024-02-26T15:15:24;19.30;99.90
34877;DHT22;21086;44.780;17.194;2024-02-26T15:17:51;19.20;99.90
34877;DHT22;21086;44.780;17.194;2024-02-26T15:20:18;19.30;99.90
34877;DHT22;21086;44.780;17.194;2024-02-26T15:22:45;19.40;99.90
34877;DHT22;21086;44.780;17.194;2024-02-26T15:25:13;19.40;99.90
34877;DHT22;21086;44.780;17.194;2024-02-26T15:27:42;19.40;99.90
34877;DHT22;21086;44.780;17.194;2024-02-26T15:30:09;19.50;99.90